createdAt,value
2022-07-29T00:01:44.276Z,1.60
2022-07-29T00:04:13.554Z,1.20
2022-07-29T00:06:42.203Z,1.20
2022-07-29T00:09:10.192Z,1.60
2022-07-29T00:11:38.361Z,1.20
2022-07-29T00:14:06.471Z,1.40
2022-07-29T00:16:34.689Z,1.20
2022-07-29T00:19:02.918Z,1.20
2022-07-29T00:21:31.049Z,1.10
2022-07-29T00:23:58.953Z,1.10
2022-07-29T00:26:28.754Z,1.30
2022-07-29T00:29:23.731Z,2.20
2022-07-29T00:31:44.848Z,1.00
2022-07-29T00:34:31.667Z,1.10
2022-07-29T00:36:59.730Z,1.30
2022-07-29T00:39:27.685Z,1.20
2022-07-29T00:41:56.495Z,1.20
2022-07-29T00:44:25.725Z,1.10
2022-07-29T00:46:53.740Z,1.00
2022-07-29T00:49:21.918Z,1.30
2022-07-29T00:51:50.907Z,1.40
2022-07-29T00:54:19.378Z,1.30
2022-07-29T00:56:47.656Z,1.20
2022-07-29T00:59:15.745Z,1.30
2022-07-29T01:01:43.671Z,1.10
2022-07-29T01:04:11.662Z,1.00
2022-07-29T01:06:39.582Z,1.00
2022-07-29T01:09:08.009Z,1.20
2022-07-29T01:11:37.085Z,1.00
2022-07-29T01:14:06.452Z,1.00
2022-07-29T01:16:42.160Z,1.00
2022-07-29T01:19:28.145Z,1.20
2022-07-29T01:21:59.030Z,0.80
2022-07-29T01:24:45.785Z,1.10
2022-07-29T01:27:25.649Z,1.00
2022-07-29T01:29:56.989Z,1.30
2022-07-29T01:32:31.671Z,1.20
2022-07-29T01:35:27.965Z,1.80
2022-07-29T01:38:00.975Z,1.10
2022-07-29T01:40:39.805Z,1.20
2022-07-29T01:43:12.095Z,1.10
2022-07-29T01:45:46.376Z,1.20
2022-07-29T01:48:47.437Z,1.40
2022-07-29T01:51:21.865Z,1.70
2022-07-29T01:53:58.343Z,1.40
2022-07-29T01:56:30.700Z,1.60
2022-07-29T01:58:59.682Z,1.40
2022-07-29T02:01:28.453Z,1.00
2022-07-29T02:03:57.303Z,1.30
2022-07-29T02:06:26.510Z,1.30
2022-07-29T02:08:55.157Z,1.20
2022-07-29T02:11:23.162Z,1.30
2022-07-29T02:13:53.935Z,1.50
2022-07-29T02:16:23.119Z,1.10
2022-07-29T02:18:54.974Z,1.30
2022-07-29T02:21:26.348Z,1.40
2022-07-29T02:26:24.555Z,1.50
2022-07-29T02:28:53.651Z,2.30
2022-07-29T02:35:41.591Z,1.60
2022-07-29T02:38:33.137Z,1.60
2022-07-29T02:41:13.000Z,1.80
2022-07-29T02:43:42.186Z,1.50
2022-07-29T02:46:28.995Z,1.60
2022-07-29T02:49:04.089Z,1.50
2022-07-29T02:51:44.574Z,1.60
2022-07-29T02:54:24.136Z,1.60
2022-07-29T02:56:55.694Z,1.50
2022-07-29T02:59:27.049Z,1.50
2022-07-29T03:01:56.684Z,1.90
2022-07-29T03:04:26.158Z,1.60
2022-07-29T03:06:54.809Z,1.70
2022-07-29T03:09:24.296Z,2.00
2022-07-29T03:11:55.142Z,1.70
2022-07-29T03:14:24.012Z,1.70
2022-07-29T03:16:52.720Z,1.80
2022-07-29T03:19:21.541Z,2.10
2022-07-29T03:21:49.976Z,2.20
2022-07-29T03:24:47.868Z,1.70
2022-07-29T03:27:16.015Z,1.80
2022-07-29T03:29:49.856Z,2.30
2022-07-29T03:32:23.907Z,2.10
2022-07-29T03:34:53.692Z,1.90
2022-07-29T03:37:21.562Z,2.00
2022-07-29T03:39:50.898Z,1.80
2022-07-29T03:42:20.894Z,1.70
2022-07-29T03:44:50.177Z,1.50
2022-07-29T03:47:21.440Z,1.90
2022-07-29T03:49:51.766Z,2.00
2022-07-29T03:52:19.855Z,2.30
2022-07-29T03:54:47.933Z,1.90
2022-07-29T03:57:16.741Z,2.30
2022-07-29T03:59:45.397Z,2.00
2022-07-29T04:02:14.916Z,1.90
2022-07-29T04:04:45.630Z,2.40
2022-07-29T04:07:14.863Z,2.10
2022-07-29T04:09:42.933Z,2.60
2022-07-29T04:12:11.328Z,1.80
2022-07-29T04:14:39.302Z,2.50
2022-07-29T04:17:07.267Z,2.30
2022-07-29T04:19:35.220Z,2.30
2022-07-29T04:22:03.729Z,2.10
2022-07-29T04:24:31.708Z,2.20
2022-07-29T04:26:59.750Z,2.40
2022-07-29T04:29:27.718Z,2.60
2022-07-29T04:31:55.739Z,2.70
2022-07-29T04:34:28.034Z,2.50
2022-07-29T04:36:56.769Z,3.20
2022-07-29T04:39:25.449Z,2.50
2022-07-29T04:41:57.889Z,2.90
2022-07-29T04:44:29.015Z,2.50
2022-07-29T04:46:58.374Z,2.40
2022-07-29T04:49:26.648Z,2.90
2022-07-29T04:51:54.808Z,2.50
2022-07-29T04:54:23.264Z,2.60
2022-07-29T04:56:51.208Z,2.20
2022-07-29T04:59:19.152Z,2.40
2022-07-29T05:01:47.176Z,2.30
2022-07-29T05:04:15.443Z,2.20
2022-07-29T05:06:43.641Z,2.20
2022-07-29T05:09:11.586Z,2.20
2022-07-29T05:11:39.515Z,2.80
2022-07-29T05:14:07.411Z,2.40
2022-07-29T05:16:35.582Z,2.90
2022-07-29T05:19:03.746Z,2.90
2022-07-29T05:21:31.635Z,2.70
2022-07-29T05:24:00.598Z,2.50
2022-07-29T05:26:28.790Z,2.50
2022-07-29T05:28:58.038Z,2.50
2022-07-29T05:31:26.125Z,2.20
2022-07-29T05:33:54.167Z,2.70
2022-07-29T05:36:22.445Z,2.70
2022-07-29T05:38:51.854Z,2.30
2022-07-29T05:41:20.576Z,2.10
2022-07-29T05:43:48.587Z,2.10
2022-07-29T05:46:16.735Z,2.60
2022-07-29T05:48:44.884Z,2.60
2022-07-29T05:51:12.881Z,2.50
2022-07-29T05:53:40.834Z,2.70
2022-07-29T05:56:08.846Z,2.60
2022-07-29T05:58:37.312Z,2.90
2022-07-29T06:01:05.304Z,3.10
2022-07-29T06:03:33.343Z,2.70
2022-07-29T06:06:01.414Z,2.70
2022-07-29T06:08:29.347Z,2.50
2022-07-29T06:10:57.314Z,2.40
2022-07-29T06:13:25.228Z,2.70
2022-07-29T06:15:53.223Z,2.50
2022-07-29T06:18:24.686Z,2.60
2022-07-29T06:20:53.632Z,2.30
2022-07-29T06:23:21.869Z,3.40
2022-07-29T06:25:49.866Z,2.50
2022-07-29T06:28:18.017Z,2.50
2022-07-29T06:30:46.030Z,2.10
2022-07-29T06:33:18.153Z,2.90
2022-07-29T06:35:53.604Z,2.90
2022-07-29T06:38:30.860Z,2.60
2022-07-29T06:41:01.287Z,2.40
2022-07-29T06:43:42.711Z,2.20
2022-07-29T06:46:21.137Z,2.70
2022-07-29T06:48:50.038Z,2.40
2022-07-29T06:51:22.430Z,1.90
2022-07-29T06:54:00.462Z,2.50
2022-07-29T06:56:38.590Z,2.00
2022-07-29T06:59:09.452Z,2.30
2022-07-29T07:01:38.639Z,1.90
2022-07-29T07:04:07.307Z,2.30
2022-07-29T07:06:36.034Z,2.20
2022-07-29T07:09:04.571Z,1.80
2022-07-29T07:11:33.455Z,2.00
2022-07-29T07:14:14.499Z,2.00
2022-07-29T07:16:42.639Z,2.10
2022-07-29T07:19:10.651Z,2.30
2022-07-29T07:21:38.639Z,2.60
2022-07-29T07:24:07.014Z,2.30
2022-07-29T07:26:34.946Z,2.10
2022-07-29T07:29:02.993Z,1.70
2022-07-29T07:31:31.042Z,2.30
2022-07-29T07:33:59.249Z,1.90
2022-07-29T07:36:27.159Z,1.80
2022-07-29T07:38:55.180Z,1.80
2022-07-29T07:41:23.439Z,2.40
2022-07-29T07:43:52.167Z,1.90
2022-07-29T07:46:20.528Z,2.30
2022-07-29T07:48:48.678Z,1.70
2022-07-29T07:51:16.676Z,1.90
2022-07-29T07:53:46.178Z,2.10
2022-07-29T07:56:14.116Z,1.90
2022-07-29T07:58:42.018Z,2.00
2022-07-29T08:01:10.688Z,1.90
2022-07-29T08:03:38.889Z,1.80
2022-07-29T08:06:07.518Z,2.00
2022-07-29T08:08:35.693Z,1.70
2022-07-29T08:11:08.931Z,1.90
2022-07-29T08:13:38.983Z,1.90
2022-07-29T08:16:14.180Z,1.80
2022-07-29T08:18:43.984Z,2.00
2022-07-29T08:21:15.106Z,2.30
2022-07-29T08:23:52.698Z,1.80
2022-07-29T08:26:23.626Z,1.70
2022-07-29T08:28:51.916Z,1.70
2022-07-29T08:31:20.250Z,2.00
2022-07-29T08:33:48.206Z,1.60
2022-07-29T08:36:16.165Z,1.40
2022-07-29T08:38:44.194Z,2.00
2022-07-29T08:41:12.468Z,2.30
2022-07-29T08:43:42.000Z,3.30
2022-07-29T08:46:11.061Z,1.90
2022-07-29T08:48:40.218Z,1.90
2022-07-29T08:51:09.093Z,1.80
2022-07-29T08:53:39.360Z,2.00
2022-07-29T08:56:07.606Z,1.90
2022-07-29T08:58:36.769Z,1.90
2022-07-29T09:01:07.686Z,1.60
2022-07-29T09:03:41.560Z,1.70
2022-07-29T09:06:09.721Z,1.60
2022-07-29T09:08:37.635Z,1.70
2022-07-29T09:11:05.878Z,1.60
2022-07-29T09:13:34.199Z,2.00
2022-07-29T09:16:08.634Z,1.60
2022-07-29T09:18:41.675Z,1.80
2022-07-29T09:24:04.771Z,2.30
2022-07-29T09:26:33.761Z,1.60
2022-07-29T09:29:09.386Z,1.90
2022-07-29T09:31:40.398Z,1.80
2022-07-29T09:34:09.250Z,1.90
2022-07-29T09:36:45.068Z,1.80
2022-07-29T09:39:14.128Z,1.80
2022-07-29T09:41:47.415Z,1.60
2022-07-29T09:44:16.127Z,1.80
2022-07-29T09:47:07.760Z,2.30
2022-07-29T09:52:12.351Z,1.50
2022-07-29T09:54:40.344Z,1.70
2022-07-29T09:57:13.761Z,1.90
2022-07-29T09:59:57.347Z,1.50
2022-07-29T10:02:29.814Z,1.60
2022-07-29T10:04:58.122Z,2.10
2022-07-29T10:07:26.459Z,1.90
2022-07-29T10:09:58.277Z,1.80
2022-07-29T10:12:26.178Z,1.60
2022-07-29T10:14:54.106Z,1.90
2022-07-29T10:21:57.929Z,1.70
2022-07-29T10:24:30.763Z,1.50
2022-07-29T10:27:00.840Z,1.90
2022-07-29T10:29:32.469Z,2.00
2022-07-29T10:32:16.043Z,1.90
2022-07-29T10:35:03.310Z,2.00
2022-07-29T10:37:45.799Z,2.10
2022-07-29T10:40:47.740Z,1.70
2022-07-29T10:46:07.370Z,2.10
2022-07-29T10:48:36.056Z,1.60
2022-07-29T10:51:07.160Z,2.00
2022-07-29T10:53:48.031Z,1.90
2022-07-29T10:59:23.027Z,2.20
2022-07-29T11:01:53.739Z,1.90
2022-07-29T11:04:44.620Z,1.70
2022-07-29T11:07:13.706Z,1.60
2022-07-29T11:09:43.903Z,1.90
2022-07-29T11:12:49.925Z,2.20
2022-07-29T11:15:22.713Z,2.50
2022-07-29T11:17:59.434Z,2.00
2022-07-29T11:20:54.573Z,1.50
2022-07-29T11:23:33.439Z,1.70
2022-07-29T11:26:18.982Z,1.90
2022-07-29T11:29:18.662Z,2.00
2022-07-29T11:31:50.859Z,1.90
2022-07-29T11:34:28.112Z,2.00
2022-07-29T11:37:06.366Z,2.10
2022-07-29T11:42:28.181Z,1.70
2022-07-29T11:45:33.423Z,1.50
2022-07-29T11:48:05.413Z,2.10
2022-07-29T11:53:36.774Z,1.50
2022-07-29T11:56:05.241Z,1.90
2022-07-29T11:58:33.490Z,2.20
2022-07-29T12:01:04.957Z,2.00
2022-07-29T12:03:35.762Z,2.50
2022-07-29T12:06:14.852Z,1.90
2022-07-29T12:07:01.815Z,2.00
2022-07-29T12:08:44.357Z,1.80
2022-07-29T12:11:21.760Z,2.00
2022-07-29T12:13:53.427Z,1.90
2022-07-29T12:16:25.755Z,2.00
2022-07-29T12:19:02.888Z,1.60
2022-07-29T12:21:56.159Z,1.80
2022-07-29T12:24:26.742Z,1.90
2022-07-29T12:26:59.687Z,2.10
2022-07-29T12:29:34.988Z,1.90
2022-07-29T12:32:07.207Z,2.00
2022-07-29T12:34:43.212Z,1.80
2022-07-29T12:37:12.456Z,2.00
2022-07-29T12:39:40.755Z,1.90
2022-07-29T12:42:18.424Z,1.80
2022-07-29T12:44:48.329Z,2.10
2022-07-29T12:47:17.210Z,2.00
2022-07-29T12:49:46.081Z,1.80
2022-07-29T12:52:30.916Z,2.00
2022-07-29T12:54:59.340Z,2.00
2022-07-29T12:57:27.999Z,1.90
2022-07-29T13:00:05.066Z,2.40
2022-07-29T13:02:33.986Z,2.40
2022-07-29T13:05:02.816Z,3.10
2022-07-29T13:07:55.050Z,2.20
2022-07-29T13:10:24.244Z,2.10
2022-07-29T13:13:10.462Z,2.50
2022-07-29T13:15:40.342Z,2.40
2022-07-29T13:18:28.198Z,1.90
2022-07-29T13:20:56.344Z,2.30
2022-07-29T13:23:24.370Z,2.20
2022-07-29T13:25:52.295Z,2.30
2022-07-29T13:28:22.538Z,1.90
2022-07-29T13:30:50.742Z,2.10
2022-07-29T13:33:19.128Z,1.80
2022-07-29T13:35:48.463Z,2.20
2022-07-29T13:38:16.574Z,1.90
2022-07-29T13:40:44.779Z,2.50
2022-07-29T13:43:12.896Z,2.00
2022-07-29T13:45:40.839Z,2.00
2022-07-29T13:48:08.899Z,2.40
2022-07-29T13:50:36.790Z,2.00
2022-07-29T13:53:05.009Z,2.40
2022-07-29T13:55:32.994Z,2.10
2022-07-29T13:58:01.046Z,2.40
2022-07-29T14:00:32.367Z,2.70
2022-07-29T14:03:00.308Z,2.20
2022-07-29T14:05:28.389Z,3.00
2022-07-29T14:07:56.297Z,2.20
2022-07-29T14:10:24.396Z,2.10
2022-07-29T14:12:52.350Z,2.20
2022-07-29T14:15:21.263Z,2.30
2022-07-29T14:17:49.245Z,2.10
2022-07-29T14:20:17.347Z,2.30
2022-07-29T14:22:45.733Z,2.90
2022-07-29T14:25:14.878Z,2.30
2022-07-29T14:27:44.747Z,2.10
2022-07-29T14:30:13.119Z,2.60
2022-07-29T14:32:41.295Z,3.00
2022-07-29T14:35:09.475Z,2.80
2022-07-29T14:37:40.371Z,3.50
2022-07-29T14:40:10.036Z,2.70
2022-07-29T14:42:39.769Z,2.80
2022-07-29T14:45:09.452Z,3.00
2022-07-29T14:47:38.334Z,2.80
2022-07-29T14:50:07.031Z,2.60
2022-07-29T14:52:35.184Z,2.90
2022-07-29T14:55:04.344Z,2.50
2022-07-29T14:57:32.973Z,2.90
2022-07-29T15:00:02.190Z,2.80
2022-07-29T15:02:52.096Z,2.70
2022-07-29T15:05:18.081Z,3.20
2022-07-29T15:07:46.053Z,2.60
2022-07-29T15:10:14.708Z,3.30
2022-07-29T15:12:43.686Z,2.50
2022-07-29T15:15:11.822Z,2.70
2022-07-29T15:17:39.957Z,2.70
2022-07-29T15:20:08.479Z,3.00
2022-07-29T15:22:36.431Z,2.70
2022-07-29T15:25:05.420Z,2.80
2022-07-29T15:27:33.365Z,2.80
2022-07-29T15:30:01.478Z,3.10
2022-07-29T15:32:29.409Z,2.90
2022-07-29T15:34:57.380Z,2.50
2022-07-29T15:37:25.288Z,2.80
2022-07-29T15:39:56.016Z,2.60
2022-07-29T15:42:27.704Z,3.00
2022-07-29T15:44:57.738Z,3.00
2022-07-29T15:47:25.692Z,2.80
2022-07-29T15:49:53.697Z,2.60
2022-07-29T15:52:25.087Z,2.90
2022-07-29T15:54:56.161Z,2.90
2022-07-29T15:57:24.646Z,2.90
2022-07-29T15:59:52.989Z,2.90
2022-07-29T16:02:20.904Z,2.70
2022-07-29T16:04:49.225Z,2.90
2022-07-29T16:07:17.587Z,2.60
2022-07-29T16:09:50.866Z,2.60
2022-07-29T16:12:21.004Z,2.30
2022-07-29T16:14:50.993Z,2.90
2022-07-29T16:17:19.282Z,2.40
2022-07-29T16:19:47.238Z,2.80
2022-07-29T16:22:15.382Z,2.20
2022-07-29T16:24:43.516Z,2.50
2022-07-29T16:27:11.583Z,2.70
2022-07-29T16:29:39.662Z,2.60
2022-07-29T16:32:07.723Z,2.20
2022-07-29T16:34:35.680Z,2.60
2022-07-29T16:37:03.990Z,2.50
2022-07-29T16:39:32.358Z,2.20
2022-07-29T16:42:03.939Z,2.60
2022-07-29T16:44:31.993Z,2.30
2022-07-29T16:47:00.468Z,2.20
2022-07-29T16:49:29.189Z,2.60
2022-07-29T16:51:57.094Z,2.50
2022-07-29T16:54:25.116Z,2.60
2022-07-29T16:56:53.152Z,2.30
2022-07-29T16:59:21.127Z,2.40
2022-07-29T17:01:49.122Z,2.00
2022-07-29T17:04:17.574Z,2.40
2022-07-29T17:06:45.740Z,2.70
2022-07-29T17:09:16.418Z,3.20
2022-07-29T17:11:53.508Z,2.80
2022-07-29T17:14:25.376Z,2.70
2022-07-29T17:17:02.367Z,2.90
2022-07-29T17:19:34.157Z,2.80
2022-07-29T17:22:11.280Z,2.90
2022-07-29T17:24:41.353Z,2.70
2022-07-29T17:27:10.473Z,3.20
2022-07-29T17:29:39.340Z,3.50
2022-07-29T17:32:09.088Z,2.90
2022-07-29T17:34:41.716Z,2.70
2022-07-29T17:37:10.900Z,3.20
2022-07-29T17:39:41.167Z,3.20
2022-07-29T17:42:10.975Z,2.90
2022-07-29T17:44:39.873Z,3.20
2022-07-29T17:47:10.744Z,3.10
2022-07-29T17:49:45.432Z,3.50
2022-07-29T17:52:13.665Z,3.60
2022-07-29T17:54:41.683Z,3.90
2022-07-29T17:57:09.654Z,7.50
2022-07-29T17:59:37.618Z,4.20
2022-07-29T18:02:05.684Z,3.90
2022-07-29T18:04:33.839Z,4.90
2022-07-29T18:07:02.150Z,7.10
2022-07-29T18:09:30.317Z,5.80
2022-07-29T18:11:58.935Z,7.60
2022-07-29T18:14:27.253Z,7.20
2022-07-29T18:16:55.223Z,6.50
2022-07-29T18:19:23.180Z,6.00
2022-07-29T18:21:56.545Z,6.40
2022-07-29T18:24:29.082Z,8.00
2022-07-29T18:26:57.396Z,4.00
2022-07-29T18:29:25.541Z,3.90
2022-07-29T18:31:53.606Z,3.90
2022-07-29T18:34:22.872Z,3.60
2022-07-29T18:36:52.363Z,3.90
2022-07-29T18:39:21.168Z,3.50
2022-07-29T18:41:52.209Z,3.60
2022-07-29T18:44:22.120Z,3.50
2022-07-29T18:46:52.016Z,3.30
2022-07-29T18:49:20.653Z,3.40
2022-07-29T18:51:49.932Z,3.10
2022-07-29T18:54:18.836Z,2.80
2022-07-29T18:56:47.178Z,3.10
2022-07-29T18:59:21.632Z,3.10
2022-07-29T19:01:49.874Z,2.60
2022-07-29T19:04:17.992Z,3.10
2022-07-29T19:06:46.063Z,3.20
2022-07-29T19:09:14.621Z,3.10
2022-07-29T19:11:42.631Z,3.00
2022-07-29T19:14:10.624Z,3.30
2022-07-29T19:16:38.808Z,3.20
2022-07-29T19:19:08.884Z,2.80
2022-07-29T19:21:36.894Z,3.70
2022-07-29T19:24:11.032Z,3.30
2022-07-29T19:26:46.774Z,3.40
2022-07-29T19:29:15.542Z,3.20
2022-07-29T19:31:44.727Z,3.80
2022-07-29T19:34:12.917Z,3.50
2022-07-29T19:36:41.807Z,3.60
2022-07-29T19:39:09.951Z,4.20
2022-07-29T19:41:38.109Z,3.80
2022-07-29T19:44:06.360Z,3.60
2022-07-29T19:46:34.937Z,3.70
2022-07-29T19:49:06.581Z,3.40
2022-07-29T19:51:34.628Z,3.60
2022-07-29T19:54:02.946Z,3.40
2022-07-29T19:56:31.956Z,3.30
2022-07-29T19:59:00.738Z,3.50
2022-07-29T20:01:33.096Z,3.40
2022-07-29T20:04:01.416Z,4.10
2022-07-29T20:06:29.473Z,3.90
2022-07-29T20:08:58.946Z,4.40
2022-07-29T20:11:27.532Z,3.30
2022-07-29T20:13:55.474Z,3.90
2022-07-29T20:16:23.534Z,3.60
2022-07-29T20:18:53.771Z,3.50
2022-07-29T20:21:21.820Z,4.40
2022-07-29T20:23:51.697Z,4.50
2022-07-29T20:26:20.569Z,4.30
2022-07-29T20:28:49.553Z,4.40
2022-07-29T20:31:18.907Z,4.20
2022-07-29T20:33:48.132Z,4.00
2022-07-29T20:36:18.374Z,4.70
2022-07-29T20:38:51.484Z,5.10
2022-07-29T20:41:27.322Z,3.80
2022-07-29T20:43:56.532Z,3.90
2022-07-29T20:46:25.148Z,4.00
2022-07-29T20:48:53.841Z,3.90
2022-07-29T20:51:31.773Z,4.40
2022-07-29T20:54:12.036Z,4.10
2022-07-29T20:56:41.430Z,3.90
2022-07-29T20:59:09.547Z,4.50
2022-07-29T21:01:37.604Z,4.50
2022-07-29T21:04:05.850Z,4.90
2022-07-29T21:06:34.711Z,4.40
2022-07-29T21:09:02.763Z,4.60
2022-07-29T21:11:44.579Z,4.60
2022-07-29T21:14:42.666Z,4.20
2022-07-29T21:17:10.647Z,4.30
2022-07-29T21:19:38.793Z,3.00
2022-07-29T21:22:07.200Z,3.40
2022-07-29T21:24:35.313Z,3.40
2022-07-29T21:27:22.054Z,3.40
2022-07-29T21:29:50.092Z,3.40
2022-07-29T21:32:29.705Z,3.30
2022-07-29T21:34:58.361Z,3.20
2022-07-29T21:37:26.308Z,3.40
2022-07-29T21:39:54.235Z,3.70
2022-07-29T21:42:22.157Z,3.50
2022-07-29T21:44:50.522Z,3.10
2022-07-29T21:47:18.452Z,3.20
2022-07-29T21:49:46.669Z,3.30
2022-07-29T21:52:18.154Z,3.00
2022-07-29T21:54:46.159Z,3.50
2022-07-29T21:57:17.214Z,3.80
2022-07-29T21:59:45.158Z,3.50
2022-07-29T22:02:13.108Z,5.90
2022-07-29T22:04:41.134Z,4.10
2022-07-29T22:07:09.053Z,3.30
2022-07-29T22:09:36.933Z,3.20
2022-07-29T22:12:05.228Z,3.30
2022-07-29T22:14:33.180Z,3.90
2022-07-29T22:17:01.421Z,3.50
2022-07-29T22:19:29.866Z,3.30
2022-07-29T22:21:58.279Z,3.30
2022-07-29T22:24:26.184Z,4.00
2022-07-29T22:26:54.117Z,3.40
2022-07-29T22:29:22.058Z,3.80
2022-07-29T22:31:50.073Z,3.30
2022-07-29T22:34:18.049Z,3.50
2022-07-29T22:36:49.579Z,3.40
2022-07-29T22:39:17.548Z,3.40
2022-07-29T22:41:45.436Z,3.50
2022-07-29T22:44:13.427Z,3.50
2022-07-29T22:46:41.468Z,3.10
2022-07-29T22:49:09.447Z,3.20
2022-07-29T22:51:37.502Z,3.10
2022-07-29T22:54:06.200Z,3.20
2022-07-29T22:56:34.140Z,4.10
2022-07-29T22:59:02.277Z,3.80
2022-07-29T23:01:37.268Z,3.30
2022-07-29T23:04:06.805Z,3.30
2022-07-29T23:06:34.813Z,3.60
2022-07-29T23:09:03.610Z,3.50
2022-07-29T23:11:31.828Z,3.90
2022-07-29T23:13:59.754Z,3.60
2022-07-29T23:16:27.782Z,3.00
2022-07-29T23:18:55.763Z,3.10
2022-07-29T23:21:23.775Z,3.00
2022-07-29T23:23:52.108Z,2.40
2022-07-29T23:26:20.465Z,3.10
2022-07-29T23:28:48.387Z,3.00
2022-07-29T23:31:16.420Z,3.00
2022-07-29T23:33:44.366Z,2.90
2022-07-29T23:36:12.267Z,2.70
2022-07-29T23:38:44.244Z,3.20
2022-07-29T23:41:12.326Z,3.30
2022-07-29T23:43:40.275Z,3.00
2022-07-29T23:46:08.276Z,3.20
2022-07-29T23:48:36.340Z,2.90
2022-07-29T23:51:04.375Z,2.80
2022-07-29T23:53:36.372Z,3.20
2022-07-29T23:58:33.913Z,2.90
